sensor_id;sensor_type;location;lat;lon;timestamp;P1;durP1;ratioP1;P2;durP2;ratioP2
16640;SDS011;8434;47.990;7.880;2024-03-02T00:00:27;3.77;;;2.10;;
16640;SDS011;8434;47.990;7.880;2024-03-02T00:03:12;12.00;;;2.27;;
16640;SDS011;8434;47.990;7.880;2024-03-02T00:05:58;3.20;;;1.90;;
16640;SDS011;8434;47.990;7.880;2024-03-02T00:08:43;2.37;;;1.80;;
16640;SDS011;8434;47.990;7.880;2024-03-02T00:11:30;3.93;;;2.10;;
16640;SDS011;8434;47.990;7.880;2024-03-02T00:14:19;2.63;;;2.43;;
16640;SDS011;8434;47.990;7.880;2024-03-02T00:17:04;2.57;;;2.10;;
16640;SDS011;8434;47.990;7.880;2024-03-02T00:19:51;2.73;;;2.10;;
16640;SDS011;8434;47.990;7.880;2024-03-02T00:22:36;2.77;;;2.10;;
16640;SDS011;8434;47.990;7.880;2024-03-02T00:25:22;2.67;;;1.83;;
16640;SDS011;8434;47.990;7.880;2024-03-02T00:28:14;2.00;;;1.80;;
16640;SDS011;8434;47.990;7.880;2024-03-02T00:31:02;2.17;;;1.67;;
16640;SDS011;8434;47.990;7.880;2024-03-02T00:33:48;2.00;;;1.80;;
16640;SDS011;8434;47.990;7.880;2024-03-02T00:36:34;2.97;;;1.60;;
16640;SDS011;8434;47.990;7.880;2024-03-02T00:39:19;3.30;;;2.17;;
16640;SDS011;8434;47.990;7.880;2024-03-02T00:42:05;3.50;;;2.03;;
16640;SDS011;8434;47.990;7.880;2024-03-02T00:44:51;3.43;;;2.40;;
16640;SDS011;8434;47.990;7.880;2024-03-02T00:47:37;3.03;;;2.40;;
16640;SDS011;8434;47.990;7.880;2024-03-02T00:50:23;2.17;;;1.70;;
16640;SDS011;8434;47.990;7.880;2024-03-02T00:53:09;3.20;;;2.10;;
16640;SDS011;8434;47.990;7.880;2024-03-02T00:55:55;3.00;;;1.80;;
16640;SDS011;8434;47.990;7.880;2024-03-02T00:58:41;3.23;;;2.20;;
16640;SDS011;8434;47.990;7.880;2024-03-02T01:01:27;5.73;;;3.30;;
16640;SDS011;8434;47.990;7.880;2024-03-02T01:04:13;3.47;;;2.47;;
16640;SDS011;8434;47.990;7.880;2024-03-02T01:06:59;2.73;;;2.03;;
16640;SDS011;8434;47.990;7.880;2024-03-02T01:09:44;2.73;;;1.90;;
16640;SDS011;8434;47.990;7.880;2024-03-02T01:12:30;3.73;;;2.07;;
16640;SDS011;8434;47.990;7.880;2024-03-02T01:15:16;3.00;;;2.00;;
16640;SDS011;8434;47.990;7.880;2024-03-02T01:18:02;4.60;;;2.10;;
16640;SDS011;8434;47.990;7.880;2024-03-02T01:20:48;2.80;;;2.37;;
16640;SDS011;8434;47.990;7.880;2024-03-02T01:23:35;3.20;;;2.70;;
16640;SDS011;8434;47.990;7.880;2024-03-02T01:26:20;4.00;;;2.47;;
16640;SDS011;8434;47.990;7.880;2024-03-02T01:29:06;3.30;;;2.17;;
16640;SDS011;8434;47.990;7.880;2024-03-02T01:31:52;3.03;;;2.17;;
16640;SDS011;8434;47.990;7.880;2024-03-02T01:34:38;3.03;;;1.73;;
16640;SDS011;8434;47.990;7.880;2024-03-02T01:37:24;2.23;;;1.93;;
16640;SDS011;8434;47.990;7.880;2024-03-02T01:40:10;2.00;;;1.53;;
16640;SDS011;8434;47.990;7.880;2024-03-02T01:42:55;2.90;;;2.20;;
16640;SDS011;8434;47.990;7.880;2024-03-02T01:45:42;3.13;;;2.10;;
16640;SDS011;8434;47.990;7.880;2024-03-02T01:48:27;4.20;;;2.30;;
16640;SDS011;8434;47.990;7.880;2024-03-02T01:51:14;2.07;;;1.60;;
16640;SDS011;8434;47.990;7.880;2024-03-02T01:54:00;2.27;;;1.60;;
16640;SDS011;8434;47.990;7.880;2024-03-02T01:56:45;3.07;;;2.40;;
16640;SDS011;8434;47.990;7.880;2024-03-02T01:59:30;2.77;;;1.77;;
16640;SDS011;8434;47.990;7.880;2024-03-02T02:02:16;2.10;;;1.67;;
16640;SDS011;8434;47.990;7.880;2024-03-02T02:05:02;2.10;;;1.80;;
16640;SDS011;8434;47.990;7.880;2024-03-02T02:07:49;4.70;;;2.10;;
16640;SDS011;8434;47.990;7.880;2024-03-02T02:10:34;4.17;;;2.40;;
16640;SDS011;8434;47.990;7.880;2024-03-02T02:13:20;3.23;;;2.07;;
16640;SDS011;8434;47.990;7.880;2024-03-02T02:16:06;3.87;;;2.23;;
16640;SDS011;8434;47.990;7.880;2024-03-02T02:18:51;3.30;;;2.37;;
16640;SDS011;8434;47.990;7.880;2024-03-02T02:21:38;4.60;;;2.50;;
16640;SDS011;8434;47.990;7.880;2024-03-02T02:24:27;2.20;;;1.93;;
16640;SDS011;8434;47.990;7.880;2024-03-02T02:27:12;2.30;;;1.87;;
16640;SDS011;8434;47.990;7.880;2024-03-02T02:29:59;2.50;;;2.00;;
16640;SDS011;8434;47.990;7.880;2024-03-02T02:32:45;2.53;;;1.90;;
16640;SDS011;8434;47.990;7.880;2024-03-02T02:35:30;2.47;;;1.50;;
16640;SDS011;8434;47.990;7.880;2024-03-02T02:38:17;3.03;;;2.10;;
16640;SDS011;8434;47.990;7.880;2024-03-02T02:41:04;2.60;;;1.63;;
16640;SDS011;8434;47.990;7.880;2024-03-02T02:43:49;3.53;;;1.50;;
16640;SDS011;8434;47.990;7.880;2024-03-02T02:46:35;2.63;;;2.23;;
16640;SDS011;8434;47.990;7.880;2024-03-02T02:49:20;2.60;;;1.80;;
16640;SDS011;8434;47.990;7.880;2024-03-02T02:52:06;3.60;;;2.10;;
16640;SDS011;8434;47.990;7.880;2024-03-02T02:54:52;3.10;;;2.20;;
16640;SDS011;8434;47.990;7.880;2024-03-02T02:57:38;2.07;;;1.70;;
16640;SDS011;8434;47.990;7.880;2024-03-02T03:00:25;2.67;;;1.80;;
16640;SDS011;8434;47.990;7.880;2024-03-02T03:03:10;2.50;;;1.67;;
16640;SDS011;8434;47.990;7.880;2024-03-02T03:05:56;2.00;;;1.63;;
16640;SDS011;8434;47.990;7.880;2024-03-02T03:08:41;3.63;;;1.63;;
16640;SDS011;8434;47.990;7.880;2024-03-02T03:11:28;2.03;;;1.67;;
16640;SDS011;8434;47.990;7.880;2024-03-02T03:14:14;2.23;;;1.63;;
16640;SDS011;8434;47.990;7.880;2024-03-02T03:17:04;2.40;;;1.90;;
16640;SDS011;8434;47.990;7.880;2024-03-02T03:19:51;2.20;;;2.00;;
16640;SDS011;8434;47.990;7.880;2024-03-02T03:22:36;2.27;;;1.97;;
16640;SDS011;8434;47.990;7.880;2024-03-02T03:25:22;2.13;;;1.53;;
16640;SDS011;8434;47.990;7.880;2024-03-02T03:28:09;1.67;;;1.50;;
16640;SDS011;8434;47.990;7.880;2024-03-02T03:30:55;2.90;;;1.57;;
16640;SDS011;8434;47.990;7.880;2024-03-02T03:33:40;2.97;;;2.00;;
16640;SDS011;8434;47.990;7.880;2024-03-02T03:36:25;2.60;;;1.90;;
16640;SDS011;8434;47.990;7.880;2024-03-02T03:39:11;3.37;;;1.50;;
16640;SDS011;8434;47.990;7.880;2024-03-02T03:41:56;1.97;;;1.53;;
16640;SDS011;8434;47.990;7.880;2024-03-02T03:44:43;1.80;;;1.50;;
16640;SDS011;8434;47.990;7.880;2024-03-02T03:47:28;1.83;;;1.47;;
16640;SDS011;8434;47.990;7.880;2024-03-02T03:50:14;2.93;;;2.23;;
16640;SDS011;8434;47.990;7.880;2024-03-02T03:52:59;1.70;;;1.33;;
16640;SDS011;8434;47.990;7.880;2024-03-02T03:55:45;1.80;;;1.37;;
16640;SDS011;8434;47.990;7.880;2024-03-02T03:58:33;1.40;;;1.30;;
16640;SDS011;8434;47.990;7.880;2024-03-02T04:01:20;1.80;;;1.50;;
16640;SDS011;8434;47.990;7.880;2024-03-02T04:04:06;1.83;;;1.20;;
16640;SDS011;8434;47.990;7.880;2024-03-02T04:06:52;1.63;;;1.30;;
16640;SDS011;8434;47.990;7.880;2024-03-02T04:09:38;3.03;;;1.43;;
16640;SDS011;8434;47.990;7.880;2024-03-02T04:12:23;2.10;;;1.40;;
16640;SDS011;8434;47.990;7.880;2024-03-02T04:15:09;3.43;;;1.90;;
16640;SDS011;8434;47.990;7.880;2024-03-02T04:17:57;3.43;;;1.47;;
16640;SDS011;8434;47.990;7.880;2024-03-02T04:20:43;1.53;;;1.30;;
16640;SDS011;8434;47.990;7.880;2024-03-02T04:23:28;1.83;;;1.20;;
16640;SDS011;8434;47.990;7.880;2024-03-02T04:26:13;1.33;;;1.10;;
16640;SDS011;8434;47.990;7.880;2024-03-02T04:28:59;1.67;;;1.20;;
16640;SDS011;8434;47.990;7.880;2024-03-02T04:31:45;2.70;;;1.97;;
16640;SDS011;8434;47.990;7.880;2024-03-02T04:34:32;2.50;;;1.10;;
16640;SDS011;8434;47.990;7.880;2024-03-02T04:37:18;2.37;;;1.33;;
16640;SDS011;8434;47.990;7.880;2024-03-02T04:40:04;2.03;;;1.83;;
16640;SDS011;8434;47.990;7.880;2024-03-02T04:42:52;2.30;;;1.13;;
16640;SDS011;8434;47.990;7.880;2024-03-02T04:45:38;2.23;;;1.37;;
16640;SDS011;8434;47.990;7.880;2024-03-02T04:48:23;1.50;;;1.37;;
16640;SDS011;8434;47.990;7.880;2024-03-02T04:51:10;1.80;;;1.37;;
16640;SDS011;8434;47.990;7.880;2024-03-02T04:53:55;2.53;;;1.10;;
16640;SDS011;8434;47.990;7.880;2024-03-02T04:56:41;2.00;;;1.37;;
16640;SDS011;8434;47.990;7.880;2024-03-02T04:59:33;1.50;;;1.30;;
16640;SDS011;8434;47.990;7.880;2024-03-02T05:02:18;2.10;;;0.80;;
16640;SDS011;8434;47.990;7.880;2024-03-02T05:05:04;0.93;;;0.87;;
16640;SDS011;8434;47.990;7.880;2024-03-02T05:07:50;1.93;;;1.10;;
16640;SDS011;8434;47.990;7.880;2024-03-02T05:10:35;4.10;;;1.30;;
16640;SDS011;8434;47.990;7.880;2024-03-02T05:13:21;1.30;;;1.20;;
16640;SDS011;8434;47.990;7.880;2024-03-02T05:16:05;1.27;;;1.07;;
16640;SDS011;8434;47.990;7.880;2024-03-02T05:18:50;2.00;;;1.00;;
16640;SDS011;8434;47.990;7.880;2024-03-02T05:21:36;1.77;;;1.30;;
16640;SDS011;8434;47.990;7.880;2024-03-02T05:24:23;1.73;;;0.90;;
16640;SDS011;8434;47.990;7.880;2024-03-02T05:27:11;1.53;;;1.03;;
16640;SDS011;8434;47.990;7.880;2024-03-02T05:29:56;1.10;;;0.97;;
16640;SDS011;8434;47.990;7.880;2024-03-02T05:32:42;1.50;;;1.10;;
16640;SDS011;8434;47.990;7.880;2024-03-02T05:35:27;2.37;;;1.20;;
16640;SDS011;8434;47.990;7.880;2024-03-02T05:38:13;2.17;;;1.20;;
16640;SDS011;8434;47.990;7.880;2024-03-02T05:41:00;2.67;;;1.00;;
16640;SDS011;8434;47.990;7.880;2024-03-02T05:43:45;1.23;;;0.90;;
16640;SDS011;8434;47.990;7.880;2024-03-02T05:46:31;1.67;;;1.03;;
16640;SDS011;8434;47.990;7.880;2024-03-02T05:49:16;2.77;;;1.13;;
16640;SDS011;8434;47.990;7.880;2024-03-02T05:52:02;2.70;;;1.17;;
16640;SDS011;8434;47.990;7.880;2024-03-02T05:54:47;1.37;;;0.90;;
16640;SDS011;8434;47.990;7.880;2024-03-02T05:57:34;1.73;;;1.20;;
16640;SDS011;8434;47.990;7.880;2024-03-02T06:00:33;1.40;;;1.07;;
16640;SDS011;8434;47.990;7.880;2024-03-02T06:03:18;1.33;;;1.20;;
16640;SDS011;8434;47.990;7.880;2024-03-02T06:06:04;1.13;;;1.00;;
16640;SDS011;8434;47.990;7.880;2024-03-02T06:08:49;4.43;;;1.00;;
16640;SDS011;8434;47.990;7.880;2024-03-02T06:11:35;1.30;;;1.10;;
16640;SDS011;8434;47.990;7.880;2024-03-02T06:14:22;1.83;;;1.20;;
16640;SDS011;8434;47.990;7.880;2024-03-02T06:17:07;1.13;;;0.93;;
16640;SDS011;8434;47.990;7.880;2024-03-02T06:19:53;1.67;;;1.10;;
16640;SDS011;8434;47.990;7.880;2024-03-02T06:22:38;1.43;;;1.00;;
16640;SDS011;8434;47.990;7.880;2024-03-02T06:25:24;1.90;;;1.20;;
16640;SDS011;8434;47.990;7.880;2024-03-02T06:28:09;1.30;;;1.13;;
16640;SDS011;8434;47.990;7.880;2024-03-02T06:30:56;2.10;;;1.40;;
16640;SDS011;8434;47.990;7.880;2024-03-02T06:33:41;1.97;;;1.30;;
16640;SDS011;8434;47.990;7.880;2024-03-02T06:36:27;1.40;;;1.13;;
16640;SDS011;8434;47.990;7.880;2024-03-02T06:39:12;1.50;;;1.23;;
16640;SDS011;8434;47.990;7.880;2024-03-02T06:41:57;1.07;;;1.00;;
16640;SDS011;8434;47.990;7.880;2024-03-02T06:44:43;1.53;;;1.10;;
16640;SDS011;8434;47.990;7.880;2024-03-02T06:47:30;1.93;;;1.30;;
16640;SDS011;8434;47.990;7.880;2024-03-02T06:50:15;2.37;;;1.13;;
16640;SDS011;8434;47.990;7.880;2024-03-02T06:53:01;1.10;;;0.90;;
16640;SDS011;8434;47.990;7.880;2024-03-02T06:55:48;1.30;;;1.20;;
16640;SDS011;8434;47.990;7.880;2024-03-02T06:58:33;2.13;;;1.23;;
16640;SDS011;8434;47.990;7.880;2024-03-02T07:01:19;5.37;;;1.30;;
16640;SDS011;8434;47.990;7.880;2024-03-02T07:04:06;2.00;;;1.43;;
16640;SDS011;8434;47.990;7.880;2024-03-02T07:06:52;1.67;;;1.20;;
16640;SDS011;8434;47.990;7.880;2024-03-02T07:09:37;2.00;;;1.30;;
16640;SDS011;8434;47.990;7.880;2024-03-02T07:12:22;1.77;;;1.27;;
16640;SDS011;8434;47.990;7.880;2024-03-02T07:15:08;1.47;;;1.07;;
16640;SDS011;8434;47.990;7.880;2024-03-02T07:18:12;2.77;;;1.00;;
16640;SDS011;8434;47.990;7.880;2024-03-02T07:20:59;2.70;;;1.00;;
16640;SDS011;8434;47.990;7.880;2024-03-02T07:23:45;1.43;;;1.13;;
16640;SDS011;8434;47.990;7.880;2024-03-02T07:26:30;1.33;;;1.03;;
16640;SDS011;8434;47.990;7.880;2024-03-02T07:29:16;1.40;;;1.10;;
16640;SDS011;8434;47.990;7.880;2024-03-02T07:32:01;1.57;;;1.30;;
16640;SDS011;8434;47.990;7.880;2024-03-02T07:34:46;1.20;;;1.10;;
16640;SDS011;8434;47.990;7.880;2024-03-02T07:37:33;1.53;;;1.10;;
16640;SDS011;8434;47.990;7.880;2024-03-02T07:40:19;1.77;;;1.30;;
16640;SDS011;8434;47.990;7.880;2024-03-02T07:43:04;2.00;;;1.27;;
16640;SDS011;8434;47.990;7.880;2024-03-02T07:45:50;1.17;;;0.87;;
16640;SDS011;8434;47.990;7.880;2024-03-02T07:48:35;2.63;;;1.60;;
16640;SDS011;8434;47.990;7.880;2024-03-02T07:51:20;1.83;;;1.33;;
16640;SDS011;8434;47.990;7.880;2024-03-02T07:54:07;2.17;;;1.50;;
16640;SDS011;8434;47.990;7.880;2024-03-02T07:56:52;2.00;;;1.40;;
16640;SDS011;8434;47.990;7.880;2024-03-02T07:59:38;2.40;;;1.33;;
16640;SDS011;8434;47.990;7.880;2024-03-02T08:02:24;2.97;;;1.10;;
16640;SDS011;8434;47.990;7.880;2024-03-02T08:05:09;1.30;;;1.07;;
16640;SDS011;8434;47.990;7.880;2024-03-02T08:07:55;2.70;;;1.13;;
16640;SDS011;8434;47.990;7.880;2024-03-02T08:10:42;1.80;;;1.23;;
16640;SDS011;8434;47.990;7.880;2024-03-02T08:13:27;1.80;;;1.20;;
16640;SDS011;8434;47.990;7.880;2024-03-02T08:16:14;2.10;;;1.23;;
16640;SDS011;8434;47.990;7.880;2024-03-02T08:22:05;1.60;;;1.20;;
16640;SDS011;8434;47.990;7.880;2024-03-02T08:24:51;1.30;;;1.00;;
16640;SDS011;8434;47.990;7.880;2024-03-02T08:27:39;1.50;;;1.00;;
16640;SDS011;8434;47.990;7.880;2024-03-02T08:30:25;3.47;;;1.23;;
16640;SDS011;8434;47.990;7.880;2024-03-02T08:33:10;2.17;;;1.43;;
16640;SDS011;8434;47.990;7.880;2024-03-02T08:35:56;1.63;;;1.20;;
16640;SDS011;8434;47.990;7.880;2024-03-02T08:38:41;1.17;;;1.00;;
16640;SDS011;8434;47.990;7.880;2024-03-02T08:41:28;1.73;;;1.40;;
16640;SDS011;8434;47.990;7.880;2024-03-02T08:44:15;1.70;;;1.30;;
16640;SDS011;8434;47.990;7.880;2024-03-02T08:47:01;1.07;;;0.90;;
16640;SDS011;8434;47.990;7.880;2024-03-02T08:49:46;1.83;;;1.40;;
16640;SDS011;8434;47.990;7.880;2024-03-02T08:52:32;1.43;;;1.33;;
16640;SDS011;8434;47.990;7.880;2024-03-02T08:55:17;1.47;;;1.30;;
16640;SDS011;8434;47.990;7.880;2024-03-02T08:58:04;2.60;;;1.20;;
16640;SDS011;8434;47.990;7.880;2024-03-02T09:00:51;1.23;;;0.93;;
16640;SDS011;8434;47.990;7.880;2024-03-02T09:03:37;1.23;;;0.90;;
16640;SDS011;8434;47.990;7.880;2024-03-02T09:06:22;1.27;;;0.90;;
16640;SDS011;8434;47.990;7.880;2024-03-02T09:09:07;2.10;;;0.73;;
16640;SDS011;8434;47.990;7.880;2024-03-02T09:11:53;0.60;;;0.60;;
16640;SDS011;8434;47.990;7.880;2024-03-02T09:14:41;0.80;;;0.63;;
16640;SDS011;8434;47.990;7.880;2024-03-02T09:17:28;0.80;;;0.63;;
16640;SDS011;8434;47.990;7.880;2024-03-02T09:20:14;2.50;;;1.00;;
16640;SDS011;8434;47.990;7.880;2024-03-02T09:23:04;2.23;;;0.60;;
16640;SDS011;8434;47.990;7.880;2024-03-02T09:25:50;0.40;;;0.40;;
16640;SDS011;8434;47.990;7.880;2024-03-02T09:28:35;1.10;;;0.80;;
16640;SDS011;8434;47.990;7.880;2024-03-02T09:31:21;1.40;;;0.50;;
16640;SDS011;8434;47.990;7.880;2024-03-02T09:34:08;0.53;;;0.53;;
16640;SDS011;8434;47.990;7.880;2024-03-02T09:36:53;1.10;;;0.83;;
16640;SDS011;8434;47.990;7.880;2024-03-02T09:39:38;0.67;;;0.50;;
16640;SDS011;8434;47.990;7.880;2024-03-02T09:42:24;0.60;;;0.60;;
16640;SDS011;8434;47.990;7.880;2024-03-02T09:45:10;1.53;;;0.73;;
16640;SDS011;8434;47.990;7.880;2024-03-02T09:47:56;0.63;;;0.60;;
16640;SDS011;8434;47.990;7.880;2024-03-02T09:50:43;0.50;;;0.50;;
16640;SDS011;8434;47.990;7.880;2024-03-02T09:53:30;0.73;;;0.50;;
16640;SDS011;8434;47.990;7.880;2024-03-02T09:56:16;0.73;;;0.63;;
16640;SDS011;8434;47.990;7.880;2024-03-02T09:59:02;0.83;;;0.40;;
16640;SDS011;8434;47.990;7.880;2024-03-02T10:01:57;0.60;;;0.60;;
16640;SDS011;8434;47.990;7.880;2024-03-02T10:04:43;0.83;;;0.50;;
16640;SDS011;8434;47.990;7.880;2024-03-02T10:07:30;1.97;;;0.60;;
16640;SDS011;8434;47.990;7.880;2024-03-02T10:10:15;1.23;;;0.77;;
16640;SDS011;8434;47.990;7.880;2024-03-02T10:13:03;0.93;;;0.50;;
16640;SDS011;8434;47.990;7.880;2024-03-02T10:15:49;1.80;;;0.70;;
16640;SDS011;8434;47.990;7.880;2024-03-02T10:18:34;0.50;;;0.50;;
16640;SDS011;8434;47.990;7.880;2024-03-02T10:21:20;0.60;;;0.60;;
16640;SDS011;8434;47.990;7.880;2024-03-02T10:24:09;0.73;;;0.67;;
16640;SDS011;8434;47.990;7.880;2024-03-02T10:26:55;1.17;;;0.50;;
16640;SDS011;8434;47.990;7.880;2024-03-02T10:29:40;0.93;;;0.60;;
16640;SDS011;8434;47.990;7.880;2024-03-02T10:32:26;0.70;;;0.40;;
16640;SDS011;8434;47.990;7.880;2024-03-02T10:35:11;0.70;;;0.63;;
16640;SDS011;8434;47.990;7.880;2024-03-02T10:37:58;0.43;;;0.43;;
16640;SDS011;8434;47.990;7.880;2024-03-02T10:40:47;2.00;;;0.70;;
16640;SDS011;8434;47.990;7.880;2024-03-02T10:43:33;0.63;;;0.63;;
16640;SDS011;8434;47.990;7.880;2024-03-02T10:46:18;1.10;;;0.50;;
16640;SDS011;8434;47.990;7.880;2024-03-02T10:49:05;0.67;;;0.50;;
16640;SDS011;8434;47.990;7.880;2024-03-02T10:51:50;0.80;;;0.60;;
16640;SDS011;8434;47.990;7.880;2024-03-02T10:54:36;0.80;;;0.70;;
16640;SDS011;8434;47.990;7.880;2024-03-02T10:57:24;1.40;;;0.63;;
16640;SDS011;8434;47.990;7.880;2024-03-02T11:00:12;1.13;;;0.50;;
16640;SDS011;8434;47.990;7.880;2024-03-02T11:03:02;2.17;;;0.60;;
16640;SDS011;8434;47.990;7.880;2024-03-02T11:05:49;0.70;;;0.70;;
16640;SDS011;8434;47.990;7.880;2024-03-02T11:08:35;0.97;;;0.70;;
16640;SDS011;8434;47.990;7.880;2024-03-02T11:11:25;1.33;;;0.67;;
16640;SDS011;8434;47.990;7.880;2024-03-02T11:14:16;2.00;;;0.90;;
16640;SDS011;8434;47.990;7.880;2024-03-02T11:17:02;1.10;;;0.67;;
16640;SDS011;8434;47.990;7.880;2024-03-02T11:19:49;0.70;;;0.70;;
16640;SDS011;8434;47.990;7.880;2024-03-02T11:22:35;0.60;;;0.50;;
16640;SDS011;8434;47.990;7.880;2024-03-02T11:25:24;0.80;;;0.60;;
16640;SDS011;8434;47.990;7.880;2024-03-02T11:28:09;1.13;;;0.70;;
16640;SDS011;8434;47.990;7.880;2024-03-02T11:30:56;2.23;;;0.80;;
16640;SDS011;8434;47.990;7.880;2024-03-02T11:33:42;1.20;;;0.90;;
16640;SDS011;8434;47.990;7.880;2024-03-02T11:36:27;0.77;;;0.70;;
16640;SDS011;8434;47.990;7.880;2024-03-02T11:39:13;0.70;;;0.70;;
16640;SDS011;8434;47.990;7.880;2024-03-02T11:41:58;1.47;;;1.10;;
16640;SDS011;8434;47.990;7.880;2024-03-02T11:44:45;0.90;;;0.70;;
16640;SDS011;8434;47.990;7.880;2024-03-02T11:47:32;1.30;;;0.70;;
16640;SDS011;8434;47.990;7.880;2024-03-02T11:50:26;0.70;;;0.60;;
16640;SDS011;8434;47.990;7.880;2024-03-02T11:53:13;1.20;;;0.67;;
16640;SDS011;8434;47.990;7.880;2024-03-02T11:55:59;0.60;;;0.60;;
16640;SDS011;8434;47.990;7.880;2024-03-02T11:58:46;0.73;;;0.73;;
16640;SDS011;8434;47.990;7.880;2024-03-02T12:01:34;1.03;;;0.67;;
16640;SDS011;8434;47.990;7.880;2024-03-02T12:04:20;3.73;;;0.90;;
16640;SDS011;8434;47.990;7.880;2024-03-02T12:07:06;0.73;;;0.70;;
16640;SDS011;8434;47.990;7.880;2024-03-02T12:09:59;0.97;;;0.63;;
16640;SDS011;8434;47.990;7.880;2024-03-02T12:12:44;1.70;;;0.80;;
16640;SDS011;8434;47.990;7.880;2024-03-02T12:15:30;0.60;;;0.60;;
16640;SDS011;8434;47.990;7.880;2024-03-02T12:18:16;0.80;;;0.70;;
16640;SDS011;8434;47.990;7.880;2024-03-02T12:21:04;0.90;;;0.60;;
16640;SDS011;8434;47.990;7.880;2024-03-02T12:23:52;1.33;;;1.00;;
16640;SDS011;8434;47.990;7.880;2024-03-02T12:26:37;0.87;;;0.77;;
16640;SDS011;8434;47.990;7.880;2024-03-02T12:29:23;0.80;;;0.73;;
16640;SDS011;8434;47.990;7.880;2024-03-02T12:32:09;1.33;;;1.23;;
16640;SDS011;8434;47.990;7.880;2024-03-02T12:34:54;2.93;;;0.70;;
16640;SDS011;8434;47.990;7.880;2024-03-02T12:37:45;0.60;;;0.60;;
16640;SDS011;8434;47.990;7.880;2024-03-02T12:40:30;1.10;;;0.70;;
16640;SDS011;8434;47.990;7.880;2024-03-02T12:43:16;1.13;;;0.70;;
16640;SDS011;8434;47.990;7.880;2024-03-02T12:46:02;1.23;;;0.50;;
16640;SDS011;8434;47.990;7.880;2024-03-02T12:48:48;0.70;;;0.60;;
16640;SDS011;8434;47.990;7.880;2024-03-02T12:51:33;3.97;;;0.60;;
16640;SDS011;8434;47.990;7.880;2024-03-02T12:54:21;0.80;;;0.50;;
16640;SDS011;8434;47.990;7.880;2024-03-02T12:57:07;0.67;;;0.60;;
16640;SDS011;8434;47.990;7.880;2024-03-02T12:59:52;0.80;;;0.60;;
16640;SDS011;8434;47.990;7.880;2024-03-02T13:02:40;1.57;;;0.50;;
16640;SDS011;8434;47.990;7.880;2024-03-02T13:05:27;0.60;;;0.50;;
16640;SDS011;8434;47.990;7.880;2024-03-02T13:08:14;0.40;;;0.40;;
16640;SDS011;8434;47.990;7.880;2024-03-02T13:11:01;1.43;;;0.80;;
16640;SDS011;8434;47.990;7.880;2024-03-02T13:13:47;0.87;;;0.60;;
16640;SDS011;8434;47.990;7.880;2024-03-02T13:16:37;0.60;;;0.60;;
16640;SDS011;8434;47.990;7.880;2024-03-02T13:19:23;0.90;;;0.60;;
16640;SDS011;8434;47.990;7.880;2024-03-02T13:22:08;0.40;;;0.40;;
16640;SDS011;8434;47.990;7.880;2024-03-02T13:24:54;0.40;;;0.40;;
16640;SDS011;8434;47.990;7.880;2024-03-02T13:27:41;0.40;;;0.40;;
16640;SDS011;8434;47.990;7.880;2024-03-02T13:30:26;1.00;;;0.43;;
16640;SDS011;8434;47.990;7.880;2024-03-02T13:33:11;1.30;;;0.70;;
16640;SDS011;8434;47.990;7.880;2024-03-02T13:35:57;0.67;;;0.50;;
16640;SDS011;8434;47.990;7.880;2024-03-02T13:38:42;0.40;;;0.40;;
16640;SDS011;8434;47.990;7.880;2024-03-02T13:41:28;0.40;;;0.40;;
16640;SDS011;8434;47.990;7.880;2024-03-02T13:44:14;0.90;;;0.50;;
16640;SDS011;8434;47.990;7.880;2024-03-02T13:47:00;0.70;;;0.60;;
16640;SDS011;8434;47.990;7.880;2024-03-02T13:49:45;0.70;;;0.50;;
16640;SDS011;8434;47.990;7.880;2024-03-02T13:52:32;1.03;;;0.60;;
16640;SDS011;8434;47.990;7.880;2024-03-02T13:55:17;0.67;;;0.63;;
16640;SDS011;8434;47.990;7.880;2024-03-02T13:58:03;0.70;;;0.57;;
16640;SDS011;8434;47.990;7.880;2024-03-02T14:00:50;2.70;;;0.57;;
16640;SDS011;8434;47.990;7.880;2024-03-02T14:03:36;1.03;;;0.60;;
16640;SDS011;8434;47.990;7.880;2024-03-02T14:06:21;2.90;;;0.83;;
16640;SDS011;8434;47.990;7.880;2024-03-02T14:09:07;0.60;;;0.60;;
16640;SDS011;8434;47.990;7.880;2024-03-02T14:11:52;0.90;;;0.53;;
16640;SDS011;8434;47.990;7.880;2024-03-02T14:14:38;2.43;;;2.23;;
16640;SDS011;8434;47.990;7.880;2024-03-02T14:17:24;0.73;;;0.63;;
16640;SDS011;8434;47.990;7.880;2024-03-02T14:20:10;1.60;;;0.70;;
16640;SDS011;8434;47.990;7.880;2024-03-02T14:22:57;1.07;;;0.70;;
16640;SDS011;8434;47.990;7.880;2024-03-02T14:25:43;0.80;;;0.60;;
16640;SDS011;8434;47.990;7.880;2024-03-02T14:28:29;0.93;;;0.70;;
16640;SDS011;8434;47.990;7.880;2024-03-02T14:31:14;0.73;;;0.70;;
16640;SDS011;8434;47.990;7.880;2024-03-02T14:34:01;1.10;;;0.80;;
16640;SDS011;8434;47.990;7.880;2024-03-02T14:36:46;1.00;;;0.80;;
16640;SDS011;8434;47.990;7.880;2024-03-02T14:39:32;0.93;;;0.63;;
16640;SDS011;8434;47.990;7.880;2024-03-02T14:42:18;1.23;;;0.90;;
16640;SDS011;8434;47.990;7.880;2024-03-02T14:45:04;0.93;;;0.70;;
16640;SDS011;8434;47.990;7.880;2024-03-02T14:47:49;0.70;;;0.70;;
16640;SDS011;8434;47.990;7.880;2024-03-02T14:50:36;1.77;;;1.23;;
16640;SDS011;8434;47.990;7.880;2024-03-02T14:53:22;2.20;;;1.20;;
16640;SDS011;8434;47.990;7.880;2024-03-02T14:56:07;1.50;;;0.93;;
16640;SDS011;8434;47.990;7.880;2024-03-02T14:58:53;1.73;;;1.00;;
16640;SDS011;8434;47.990;7.880;2024-03-02T15:01:39;1.60;;;1.00;;
16640;SDS011;8434;47.990;7.880;2024-03-02T15:04:24;1.90;;;1.00;;
16640;SDS011;8434;47.990;7.880;2024-03-02T15:07:12;1.57;;;0.83;;
16640;SDS011;8434;47.990;7.880;2024-03-02T15:09:57;1.53;;;0.90;;
16640;SDS011;8434;47.990;7.880;2024-03-02T15:12:43;1.97;;;0.77;;
16640;SDS011;8434;47.990;7.880;2024-03-02T15:15:28;1.83;;;0.80;;
16640;SDS011;8434;47.990;7.880;2024-03-02T15:18:14;0.93;;;0.70;;
16640;SDS011;8434;47.990;7.880;2024-03-02T15:20:59;0.60;;;0.50;;
16640;SDS011;8434;47.990;7.880;2024-03-02T15:23:50;0.90;;;0.80;;
16640;SDS011;8434;47.990;7.880;2024-03-02T15:26:35;1.73;;;1.10;;
16640;SDS011;8434;47.990;7.880;2024-03-02T15:29:21;0.80;;;0.80;;
16640;SDS011;8434;47.990;7.880;2024-03-02T15:32:09;1.00;;;0.90;;
16640;SDS011;8434;47.990;7.880;2024-03-02T15:34:54;5.13;;;2.90;;
16640;SDS011;8434;47.990;7.880;2024-03-02T15:37:40;3.33;;;2.00;;
16640;SDS011;8434;47.990;7.880;2024-03-02T15:40:27;1.00;;;0.77;;
16640;SDS011;8434;47.990;7.880;2024-03-02T15:43:12;1.10;;;1.00;;
16640;SDS011;8434;47.990;7.880;2024-03-02T15:45:58;1.33;;;0.90;;
16640;SDS011;8434;47.990;7.880;2024-03-02T15:48:48;3.03;;;1.10;;
16640;SDS011;8434;47.990;7.880;2024-03-02T15:51:34;1.47;;;0.90;;
16640;SDS011;8434;47.990;7.880;2024-03-02T15:54:24;1.27;;;1.00;;
16640;SDS011;8434;47.990;7.880;2024-03-02T15:57:11;1.20;;;0.80;;
16640;SDS011;8434;47.990;7.880;2024-03-02T15:59:56;1.53;;;1.30;;
16640;SDS011;8434;47.990;7.880;2024-03-02T16:02:42;0.90;;;0.70;;
16640;SDS011;8434;47.990;7.880;2024-03-02T16:05:28;1.13;;;0.87;;
16640;SDS011;8434;47.990;7.880;2024-03-02T16:08:13;1.33;;;1.03;;
16640;SDS011;8434;47.990;7.880;2024-03-02T16:10:59;1.27;;;1.00;;
16640;SDS011;8434;47.990;7.880;2024-03-02T16:13:46;1.30;;;1.20;;
16640;SDS011;8434;47.990;7.880;2024-03-02T16:16:31;2.70;;;1.37;;
16640;SDS011;8434;47.990;7.880;2024-03-02T16:19:17;1.97;;;1.10;;
16640;SDS011;8434;47.990;7.880;2024-03-02T16:22:05;1.37;;;1.03;;
16640;SDS011;8434;47.990;7.880;2024-03-02T16:24:52;2.80;;;1.10;;
16640;SDS011;8434;47.990;7.880;2024-03-02T16:27:38;1.17;;;1.00;;
16640;SDS011;8434;47.990;7.880;2024-03-02T16:30:25;1.53;;;1.27;;
16640;SDS011;8434;47.990;7.880;2024-03-02T16:33:11;2.87;;;1.60;;
16640;SDS011;8434;47.990;7.880;2024-03-02T16:35:56;7.50;;;1.50;;
16640;SDS011;8434;47.990;7.880;2024-03-02T16:38:42;1.13;;;0.97;;
16640;SDS011;8434;47.990;7.880;2024-03-02T16:41:28;5.70;;;1.57;;
16640;SDS011;8434;47.990;7.880;2024-03-02T16:44:16;3.43;;;1.50;;
16640;SDS011;8434;47.990;7.880;2024-03-02T16:47:06;2.70;;;1.67;;
16640;SDS011;8434;47.990;7.880;2024-03-02T16:49:52;2.50;;;1.20;;
16640;SDS011;8434;47.990;7.880;2024-03-02T16:52:37;4.23;;;1.53;;
16640;SDS011;8434;47.990;7.880;2024-03-02T16:55:23;2.93;;;1.60;;
16640;SDS011;8434;47.990;7.880;2024-03-02T16:58:08;3.23;;;1.60;;